Time;durP1;ratioP1;P1;durP2;ratioP2;P2;SDS_P1;SDS_P2;PMS_P1;PMS_P2;Temp;Humidity;BMP_temperature;BMP_pressure;BME280_temperature;BME280_humidity;BME280_pressure;Samples;Min_cycle;Max_cycle;Signal;HPM_P1;HPM_P2
2023/02/03 00:01:48;;;;;;;22.17;5.73;;;9.10;99.90;;;;;;4927115;29;20226;-78
2023/02/03 00:04:15;;;;;;;23.37;5.23;;;9.20;99.90;;;;;;4927025;29;20236;-77
2023/02/03 00:06:42;;;;;;;19.57;4.87;;;9.20;99.90;;;;;;4927375;29;20202;-77
2023/02/03 00:09:09;;;;;;;19.37;4.97;;;9.20;99.90;;;;;;4926490;29;20194;-75
2023/02/03 00:11:37;;;;;;;21.53;4.40;;;9.30;99.90;;;;;;4926620;29;20217;-77
2023/02/03 00:14:06;;;;;;;11.33;3.87;;;9.40;99.90;;;;;;4926622;29;20212;-78
2023/02/03 00:16:33;;;;;;;17.47;5.07;;;9.40;99.90;;;;;;4926503;29;20217;-76
2023/02/03 00:19:00;;;;;;;21.30;4.93;;;9.30;99.90;;;;;;4926507;29;20210;-76
2023/02/03 00:21:27;;;;;;;22.30;5.60;;;9.40;99.90;;;;;;4925969;29;20214;-77
2023/02/03 00:23:54;;;;;;;18.03;3.87;;;9.40;99.90;;;;;;4926517;29;20210;-76
2023/02/03 00:26:22;;;;;;;18.23;4.60;;;9.40;99.90;;;;;;4926841;29;20206;-78
2023/02/03 00:28:49;;;;;;;19.70;4.33;;;9.50;99.90;;;;;;4925551;29;20202;-77
2023/02/03 00:31:19;;;;;;;13.93;3.70;;;9.50;99.90;;;;;;4926366;29;20250;-77
2023/02/03 00:33:46;;;;;;;18.50;4.63;;;9.50;99.90;;;;;;4927164;29;20210;-78
2023/02/03 00:36:14;;;;;;;17.20;5.33;;;9.50;99.90;;;;;;4911781;29;20207;-79
2023/02/03 00:38:41;;;;;;;14.27;4.03;;;9.50;99.90;;;;;;4907770;29;20230;-77
2023/02/03 00:41:08;;;;;;;14.37;4.10;;;9.50;99.90;;;;;;4908675;29;20301;-76
2023/02/03 00:43:34;;;;;;;17.57;3.90;;;9.60;99.90;;;;;;4924767;29;20232;-78
2023/02/03 00:46:02;;;;;;;18.60;4.07;;;9.60;99.90;;;;;;4926909;29;20248;-77
2023/02/03 00:48:30;;;;;;;20.00;4.50;;;9.60;99.90;;;;;;4926465;29;20229;-77
2023/02/03 00:50:57;;;;;;;18.40;4.90;;;9.60;99.90;;;;;;4927073;29;20206;-78
2023/02/03 00:53:24;;;;;;;12.83;3.97;;;9.60;99.90;;;;;;4926506;29;20818;-80
2023/02/03 00:55:51;;;;;;;15.03;4.17;;;9.70;99.90;;;;;;4926129;29;20233;-76
2023/02/03 00:58:18;;;;;;;14.20;4.23;;;9.70;99.90;;;;;;4927282;29;20236;-78
2023/02/03 01:00:45;;;;;;;14.60;4.47;;;9.70;99.90;;;;;;4926187;29;20781;-77
2023/02/03 01:03:12;;;;;;;19.27;4.70;;;9.70;99.90;;;;;;4926541;29;20340;-76
2023/02/03 01:05:40;;;;;;;20.23;4.30;;;9.70;99.90;;;;;;4926077;29;20213;-77
2023/02/03 01:08:07;;;;;;;15.20;4.43;;;9.70;99.90;;;;;;4926395;29;20812;-76
2023/02/03 01:10:34;;;;;;;23.23;5.43;;;9.70;99.90;;;;;;4925462;29;20244;-76
2023/02/03 01:13:01;;;;;;;22.50;7.23;;;9.70;99.90;;;;;;4926187;29;20209;-77
2023/02/03 01:15:27;;;;;;;18.13;5.33;;;9.70;99.90;;;;;;4915089;29;20218;-76
2023/02/03 01:17:54;;;;;;;16.40;5.17;;;9.70;99.90;;;;;;4907087;29;20207;-78
2023/02/03 01:20:23;;;;;;;17.20;4.43;;;9.70;99.90;;;;;;4907495;29;20293;-77
2023/02/03 01:22:51;;;;;;;13.77;3.57;;;9.70;99.90;;;;;;4907793;29;20718;-79
2023/02/03 01:25:18;;;;;;;15.33;4.20;;;9.70;99.90;;;;;;4906995;29;20214;-76
2023/02/03 01:27:45;;;;;;;15.23;4.63;;;9.70;99.90;;;;;;4907212;29;20791;-76
2023/02/03 01:30:12;;;;;;;12.20;4.07;;;9.70;99.90;;;;;;4919890;29;20212;-78
2023/02/03 01:32:39;;;;;;;19.77;4.60;;;9.70;99.90;;;;;;4925708;29;20626;-78
2023/02/03 01:35:06;;;;;;;14.03;4.37;;;9.70;99.90;;;;;;4917745;29;20203;-76
2023/02/03 01:37:33;;;;;;;19.73;4.50;;;9.70;99.90;;;;;;4906652;29;20210;-77
2023/02/03 01:40:02;;;;;;;15.77;4.43;;;9.70;99.90;;;;;;4907986;29;20522;-77
2023/02/03 01:42:33;;;;;;;14.83;4.70;;;9.70;99.90;;;;;;4925780;29;20892;-77
2023/02/03 01:44:59;;;;;;;16.63;4.63;;;9.70;99.90;;;;;;4925926;29;20217;-76
2023/02/03 01:47:31;;;;;;;15.50;4.03;;;9.80;99.90;;;;;;4925829;29;20206;-77
2023/02/03 01:50:11;;;;;;;14.67;4.40;;;9.80;99.90;;;;;;4925747;29;20206;-78
2023/02/03 01:52:43;;;;;;;17.20;4.53;;;9.80;99.90;;;;;;4925190;29;20200;-78
2023/02/03 01:55:15;;;;;;;21.40;5.30;;;9.80;99.90;;;;;;4924710;29;20372;-77
2023/02/03 01:57:47;;;;;;;19.67;5.20;;;9.80;99.90;;;;;;4926260;29;20253;-80
2023/02/03 02:00:14;;;;;;;16.63;4.50;;;9.80;99.90;;;;;;4925939;29;20208;-79
2023/02/03 02:02:44;;;;;;;16.10;4.33;;;9.80;99.90;;;;;;4926448;29;20232;-79
2023/02/03 02:05:16;;;;;;;18.17;4.70;;;9.80;99.90;;;;;;4926618;29;20209;-80
2023/02/03 02:07:44;;;;;;;10.73;3.93;;;9.90;99.90;;;;;;4910125;29;20211;-79
2023/02/03 02:10:13;;;;;;;18.63;4.80;;;9.80;99.90;;;;;;4911887;29;20562;-81
2023/02/03 02:12:40;;;;;;;16.60;4.40;;;9.80;99.90;;;;;;4911178;29;20218;-78
2023/02/03 02:15:08;;;;;;;15.20;3.90;;;9.80;99.90;;;;;;4929447;29;20226;-79
2023/02/03 02:18:03;;;;;;;16.70;5.07;;;9.80;99.90;;;;;;4929769;29;20214;-77
2023/02/03 02:20:54;;;;;;;18.00;4.47;;;9.80;99.90;;;;;;4929258;29;20230;-79
2023/02/03 02:23:53;;;;;;;16.20;4.50;;;9.80;99.90;;;;;;4929720;29;20222;-80
2023/02/03 02:26:39;;;;;;;18.97;4.63;;;9.80;99.90;;;;;;4923989;29;20214;-78
2023/02/03 02:29:39;;;;;;;13.93;3.90;;;9.80;99.90;;;;;;4928773;29;20914;-77
2023/02/03 02:32:18;;;;;;;18.70;4.67;;;9.80;99.90;;;;;;4929622;29;20934;-79
2023/02/03 02:34:53;;;;;;;19.30;5.00;;;9.80;99.90;;;;;;4929181;29;20202;-77
2023/02/03 02:37:28;;;;;;;17.37;4.10;;;9.80;99.90;;;;;;4929376;29;20220;-79
2023/02/03 02:40:02;;;;;;;16.30;4.57;;;9.80;99.90;;;;;;4929991;29;20189;-79
2023/02/03 02:42:39;;;;;;;16.80;4.47;;;9.80;99.90;;;;;;4929884;29;20309;-80
2023/02/03 02:45:10;;;;;;;14.17;4.33;;;9.80;99.90;;;;;;4918993;29;20202;-83
2023/02/03 02:47:39;;;;;;;16.33;4.47;;;9.80;99.90;;;;;;4910371;29;21055;-78
2023/02/03 02:50:12;;;;;;;19.33;4.43;;;9.70;99.90;;;;;;4909810;29;20285;-79
2023/02/03 02:52:42;;;;;;;17.13;4.50;;;9.70;99.90;;;;;;4910241;29;20590;-80
2023/02/03 02:55:14;;;;;;;23.83;5.37;;;9.80;99.90;;;;;;4910793;29;20313;-77
2023/02/03 02:57:43;;;;;;;16.30;4.50;;;9.80;99.90;;;;;;4909511;29;20191;-79
2023/02/03 03:00:12;;;;;;;17.30;4.57;;;9.70;99.90;;;;;;4910508;29;20213;-80
2023/02/03 03:02:41;;;;;;;19.37;4.57;;;9.70;99.90;;;;;;4910058;29;20587;-79
2023/02/03 03:05:10;;;;;;;15.03;4.07;;;9.70;99.90;;;;;;4926203;29;20205;-80
2023/02/03 03:07:43;;;;;;;18.77;5.27;;;9.70;99.90;;;;;;4929169;29;20681;-80
2023/02/03 03:10:14;;;;;;;16.67;4.50;;;9.70;99.90;;;;;;4929141;29;20692;-79
2023/02/03 03:12:46;;;;;;;18.87;4.50;;;9.70;99.90;;;;;;4929046;29;20571;-80
2023/02/03 03:15:19;;;;;;;19.57;5.20;;;9.70;99.90;;;;;;4928728;29;20634;-79
2023/02/03 03:17:53;;;;;;;16.83;4.33;;;9.70;99.90;;;;;;4928139;29;20811;-80
2023/02/03 03:20:25;;;;;;;20.43;5.17;;;9.70;99.90;;;;;;4929190;29;20206;-80
2023/02/03 03:22:57;;;;;;;18.40;5.10;;;9.70;99.90;;;;;;4928527;29;20342;-79
2023/02/03 03:25:29;;;;;;;20.83;4.97;;;9.70;99.90;;;;;;4909786;29;20199;-79
2023/02/03 03:28:01;;;;;;;14.97;4.33;;;9.70;99.90;;;;;;4909831;29;20286;-77
2023/02/03 03:30:33;;;;;;;15.03;4.33;;;9.70;99.90;;;;;;4911846;29;20226;-79
2023/02/03 03:33:01;;;;;;;13.97;3.73;;;9.70;99.90;;;;;;4927952;29;20277;-78
2023/02/03 03:35:36;;;;;;;25.20;4.90;;;9.70;99.90;;;;;;4914708;29;20219;-79
2023/02/03 03:38:09;;;;;;;14.60;4.57;;;9.70;99.90;;;;;;4915158;29;20344;-79
2023/02/03 03:40:41;;;;;;;21.80;4.17;;;9.70;99.90;;;;;;4928417;29;20228;-79
2023/02/03 03:43:14;;;;;;;19.23;4.00;;;9.60;99.90;;;;;;4912836;29;21015;-81
2023/02/03 03:45:48;;;;;;;14.33;4.33;;;9.60;99.90;;;;;;4909052;29;20325;-79
2023/02/03 03:48:20;;;;;;;22.13;4.60;;;9.60;99.90;;;;;;4909236;29;20305;-78
2023/02/03 03:50:52;;;;;;;12.80;3.80;;;9.60;99.90;;;;;;4923721;29;20840;-79
2023/02/03 03:53:22;;;;;;;19.57;5.67;;;9.60;99.90;;;;;;4928167;29;20190;-80
2023/02/03 03:55:52;;;;;;;22.97;5.23;;;9.60;99.90;;;;;;4928409;29;20693;-80
2023/02/03 03:58:23;;;;;;;19.23;4.90;;;9.60;99.90;;;;;;4911716;29;20586;-79
2023/02/03 04:00:50;;;;;;;17.97;4.13;;;9.60;99.90;;;;;;4909404;29;20199;-80
2023/02/03 04:03:23;;;;;;;18.80;4.37;;;9.60;99.90;;;;;;4910232;29;20548;-80
2023/02/03 04:05:50;;;;;;;26.60;5.10;;;9.60;99.90;;;;;;4909505;29;20914;-78
2023/02/03 04:08:17;;;;;;;19.13;4.37;;;9.60;99.90;;;;;;4914755;29;20600;-80
2023/02/03 04:10:44;;;;;;;17.13;4.20;;;9.60;99.90;;;;;;4928306;29;20246;-80
2023/02/03 04:13:14;;;;;;;18.03;4.60;;;9.70;99.90;;;;;;4928734;29;20325;-79
2023/02/03 04:15:42;;;;;;;14.20;4.23;;;9.70;99.90;;;;;;4927363;29;20987;-79
2023/02/03 04:18:10;;;;;;;13.57;4.00;;;9.70;99.90;;;;;;4928215;29;20206;-79
2023/02/03 04:20:38;;;;;;;16.80;4.13;;;9.60;99.90;;;;;;4926417;29;20214;-81
2023/02/03 04:23:05;;;;;;;17.50;4.63;;;9.60;99.90;;;;;;4919097;29;20709;-79
2023/02/03 04:25:32;;;;;;;16.50;4.03;;;9.60;99.90;;;;;;4927642;29;20221;-81
2023/02/03 04:27:59;;;;;;;21.43;4.80;;;9.70;99.90;;;;;;4928179;29;20210;-81
2023/02/03 04:30:26;;;;;;;18.60;4.97;;;9.70;99.90;;;;;;4926823;29;20213;-80
2023/02/03 04:32:53;;;;;;;26.83;5.77;;;9.70;99.90;;;;;;4927407;29;20788;-81
2023/02/03 04:35:21;;;;;;;24.43;6.00;;;9.70;99.90;;;;;;4927237;29;20294;-80
2023/02/03 04:37:49;;;;;;;19.87;5.63;;;9.60;99.90;;;;;;4927468;29;20209;-80
2023/02/03 04:40:16;;;;;;;18.63;4.23;;;9.70;99.90;;;;;;4926524;29;20218;-81
2023/02/03 04:42:43;;;;;;;15.50;3.87;;;9.60;99.90;;;;;;4926454;29;20209;-80
2023/02/03 04:45:12;;;;;;;20.50;5.83;;;9.60;99.90;;;;;;4927236;29;20206;-77
2023/02/03 04:47:39;;;;;;;19.53;4.37;;;9.60;99.90;;;;;;4926440;29;20638;-78
2023/02/03 04:50:06;;;;;;;18.27;4.33;;;9.60;99.90;;;;;;4926532;29;20201;-81
2023/02/03 04:52:33;;;;;;;22.70;4.40;;;9.60;99.90;;;;;;4926161;29;20512;-79
2023/02/03 04:55:02;;;;;;;19.20;3.57;;;9.60;99.90;;;;;;4927628;29;20208;-80
2023/02/03 04:57:29;;;;;;;23.63;4.47;;;9.60;99.90;;;;;;4925688;29;20699;-81
2023/02/03 04:59:56;;;;;;;16.53;4.57;;;9.60;99.90;;;;;;4926839;29;20395;-79
2023/02/03 05:02:23;;;;;;;18.37;4.27;;;9.60;99.90;;;;;;4926701;29;20630;-79
2023/02/03 05:04:50;;;;;;;20.40;3.73;;;9.50;99.90;;;;;;4924795;29;20226;-80
2023/02/03 05:07:17;;;;;;;19.30;4.53;;;9.50;99.90;;;;;;4926386;29;20205;-79
2023/02/03 05:09:44;;;;;;;15.07;3.90;;;9.50;99.90;;;;;;4925741;29;20269;-79
2023/02/03 05:12:12;;;;;;;24.83;4.23;;;9.50;99.90;;;;;;4926773;29;20232;-80
2023/02/03 05:14:39;;;;;;;19.27;4.30;;;9.50;99.90;;;;;;4926317;29;20212;-81
2023/02/03 05:17:06;;;;;;;18.47;3.83;;;9.50;99.90;;;;;;4926391;29;20202;-80
2023/02/03 05:19:32;;;;;;;24.23;4.83;;;9.50;99.90;;;;;;4926292;29;20213;-81
2023/02/03 05:21:59;;;;;;;21.63;5.37;;;9.50;99.90;;;;;;4927607;29;20216;-81
2023/02/03 05:24:26;;;;;;;24.97;4.37;;;9.40;99.90;;;;;;4916977;29;20248;-80
2023/02/03 05:26:53;;;;;;;12.07;4.13;;;9.40;99.90;;;;;;4907681;29;20681;-80
2023/02/03 05:29:21;;;;;;;17.53;4.17;;;9.50;99.90;;;;;;4915746;29;20640;-80
2023/02/03 05:31:48;;;;;;;20.17;3.90;;;9.50;99.90;;;;;;4926598;29;20309;-81
2023/02/03 05:34:15;;;;;;;15.13;3.97;;;9.50;99.90;;;;;;4926997;29;20289;-81
2023/02/03 05:36:42;;;;;;;14.03;4.10;;;9.50;99.90;;;;;;4926478;29;20245;-80
2023/02/03 05:39:09;;;;;;;24.50;5.33;;;9.50;99.90;;;;;;4926637;29;20329;-83
2023/02/03 05:41:53;;;;;;;21.17;4.47;;;9.50;99.90;;;;;;4927984;29;20231;-81
2023/02/03 05:44:22;;;;;;;22.23;3.73;;;9.50;99.90;;;;;;4930326;29;20724;-80
2023/02/03 05:46:50;;;;;;;18.00;4.13;;;9.50;99.90;;;;;;4929560;29;20634;-82
2023/02/03 05:49:18;;;;;;;24.87;4.23;;;9.40;99.90;;;;;;4913299;29;20540;-80
2023/02/03 05:51:45;;;;;;;18.23;4.63;;;9.40;99.90;;;;;;4911161;29;20234;-78
2023/02/03 05:54:12;;;;;;;18.67;4.03;;;9.40;99.90;;;;;;4910620;29;20579;-79
2023/02/03 05:56:39;;;;;;;15.43;3.33;;;9.50;99.90;;;;;;4921697;29;20210;-78
2023/02/03 05:59:06;;;;;;;21.10;4.03;;;9.50;99.90;;;;;;4929648;29;20210;-80
2023/02/03 06:01:35;;;;;;;16.47;3.67;;;9.50;99.90;;;;;;4929381;29;20868;-80
2023/02/03 06:04:03;;;;;;;16.47;4.23;;;9.50;99.90;;;;;;4930047;29;20237;-80
2023/02/03 06:06:33;;;;;;;16.50;3.30;;;9.50;99.90;;;;;;4929274;29;20202;-79
2023/02/03 06:09:00;;;;;;;18.10;4.50;;;9.50;99.90;;;;;;4930753;29;20210;-80
2023/02/03 06:11:27;;;;;;;13.43;3.77;;;9.50;99.90;;;;;;4929572;29;20876;-80
2023/02/03 06:13:54;;;;;;;17.33;3.67;;;9.50;99.90;;;;;;4929624;29;20209;-80
2023/02/03 06:16:23;;;;;;;10.90;3.50;;;9.50;99.90;;;;;;4930124;29;20208;-80
2023/02/03 06:18:51;;;;;;;12.53;3.20;;;9.50;99.90;;;;;;4929588;29;20326;-80
2023/02/03 06:21:19;;;;;;;18.07;4.07;;;9.50;99.90;;;;;;4929423;29;20213;-81
2023/02/03 06:23:46;;;;;;;18.63;3.70;;;9.50;99.90;;;;;;4929434;29;20232;-80
2023/02/03 06:26:13;;;;;;;18.13;4.30;;;9.50;99.90;;;;;;4929819;29;20550;-78
2023/02/03 06:28:40;;;;;;;15.07;4.20;;;9.50;99.90;;;;;;4928938;29;20223;-81
2023/02/03 06:31:07;;;;;;;13.97;3.83;;;9.50;99.90;;;;;;4928694;29;20213;-82
2023/02/03 06:33:34;;;;;;;26.33;5.53;;;9.50;99.90;;;;;;4928174;29;20500;-81
2023/02/03 06:36:03;;;;;;;17.00;3.90;;;9.50;99.90;;;;;;4927205;29;20686;-80
2023/02/03 06:38:29;;;;;;;18.47;3.43;;;9.50;99.90;;;;;;4927597;29;20867;-77
2023/02/03 06:40:56;;;;;;;18.83;3.80;;;9.50;99.90;;;;;;4928896;29;20209;-80
2023/02/03 06:43:23;;;;;;;12.47;3.07;;;9.50;99.90;;;;;;4928667;29;20198;-79
2023/02/03 06:45:50;;;;;;;18.87;4.27;;;9.50;99.90;;;;;;4928716;29;20329;-78
2023/02/03 06:48:17;;;;;;;15.70;3.50;;;9.60;99.90;;;;;;4928237;29;20300;-79
2023/02/03 06:50:45;;;;;;;18.60;3.77;;;9.50;99.90;;;;;;4927967;29;20210;-79
2023/02/03 06:53:13;;;;;;;15.73;3.33;;;9.50;99.90;;;;;;4927921;29;20237;-79
2023/02/03 06:55:40;;;;;;;16.60;3.70;;;9.50;99.90;;;;;;4927356;29;20210;-79
2023/02/03 06:58:07;;;;;;;19.13;4.47;;;9.50;99.90;;;;;;4929219;29;20241;-78
2023/02/03 07:00:34;;;;;;;20.03;4.20;;;9.50;99.90;;;;;;4928773;29;20230;-80
2023/02/03 07:03:01;;;;;;;16.30;4.10;;;9.50;99.90;;;;;;4927883;29;20222;-79
2023/02/03 07:05:28;;;;;;;19.53;4.00;;;9.50;99.90;;;;;;4928367;29;20230;-78
2023/02/03 07:07:55;;;;;;;19.50;4.67;;;9.50;99.90;;;;;;4928130;29;20277;-81
2023/02/03 07:10:23;;;;;;;18.30;4.00;;;9.50;99.90;;;;;;4927220;29;20233;-79
2023/02/03 07:12:50;;;;;;;23.07;4.63;;;9.40;99.90;;;;;;4925936;29;20214;-80
2023/02/03 07:15:17;;;;;;;18.40;3.67;;;9.40;99.90;;;;;;4927053;29;20206;-80
2023/02/03 07:17:47;;;;;;;21.07;4.53;;;9.40;99.90;;;;;;4926018;29;20218;-79
2023/02/03 07:20:14;;;;;;;24.23;4.63;;;9.40;99.90;;;;;;4913496;29;20221;-80
2023/02/03 07:22:42;;;;;;;22.80;4.57;;;9.40;99.90;;;;;;4908811;29;20238;-81
2023/02/03 07:25:09;;;;;;;17.00;4.67;;;9.40;99.90;;;;;;4908275;29;20310;-80
2023/02/03 07:27:38;;;;;;;22.93;4.50;;;9.40;99.90;;;;;;4915935;29;20219;-80
2023/02/03 07:30:06;;;;;;;14.43;4.30;;;9.40;99.90;;;;;;4928494;29;20247;-81
2023/02/03 07:32:33;;;;;;;23.80;4.93;;;9.40;99.90;;;;;;4927458;29;20221;-81
2023/02/03 07:35:00;;;;;;;22.17;4.63;;;9.40;99.90;;;;;;4929174;29;20539;-80
2023/02/03 07:37:27;;;;;;;18.63;4.00;;;9.50;99.90;;;;;;4928380;29;20216;-79
2023/02/03 07:39:54;;;;;;;20.67;4.20;;;9.50;99.90;;;;;;4927224;29;20798;-80
2023/02/03 07:42:21;;;;;;;23.87;4.60;;;9.50;99.90;;;;;;4928968;29;20233;-81
2023/02/03 07:44:49;;;;;;;21.73;4.90;;;9.50;99.90;;;;;;4927652;29;20477;-80
2023/02/03 07:47:16;;;;;;;23.37;4.30;;;9.50;99.90;;;;;;4928247;29;20216;-81
2023/02/03 07:49:43;;;;;;;17.03;3.80;;;9.50;99.90;;;;;;4922473;29;20218;-81
2023/02/03 07:52:10;;;;;;;16.10;4.17;;;9.50;99.90;;;;;;4913008;29;20210;-78
2023/02/03 07:54:36;;;;;;;24.47;4.20;;;9.60;99.90;;;;;;4928459;29;20198;-80
2023/02/03 07:57:03;;;;;;;21.97;4.27;;;9.60;99.90;;;;;;4916464;29;20856;-81
2023/02/03 07:59:30;;;;;;;14.23;3.60;;;9.70;99.90;;;;;;4908466;29;20581;-80
2023/02/03 08:01:58;;;;;;;15.20;3.77;;;9.60;99.90;;;;;;4919515;29;20210;-80
2023/02/03 08:07:48;;;;;;;15.30;3.43;;;9.70;99.90;;;;;;4907563;29;20594;-79
2023/02/03 08:10:16;;;;;;;14.30;4.33;;;9.80;99.90;;;;;;4927437;29;20238;-81
2023/02/03 08:12:45;;;;;;;18.70;4.13;;;9.80;99.90;;;;;;4923511;29;20232;-81
2023/02/03 08:15:12;;;;;;;22.10;4.97;;;9.80;99.90;;;;;;4921432;29;20246;-82
2023/02/03 08:17:41;;;;;;;16.83;4.07;;;9.80;99.90;;;;;;4926841;29;20226;-79
2023/02/03 08:20:09;;;;;;;16.83;4.60;;;9.80;99.90;;;;;;4920563;29;20304;-78
2023/02/03 08:22:35;;;;;;;14.90;3.77;;;9.80;99.90;;;;;;4924294;29;20618;-87
2023/02/03 08:25:02;;;;;;;17.87;4.50;;;9.80;99.90;;;;;;4932420;29;20220;-82
2023/02/03 08:27:31;;;;;;;24.53;4.00;;;9.80;99.90;;;;;;4927894;29;20207;-78
2023/02/03 08:29:58;;;;;;;23.97;5.33;;;9.80;99.90;;;;;;4927232;29;20302;-81
2023/02/03 08:32:25;;;;;;;21.80;4.80;;;9.80;99.90;;;;;;4928204;29;20296;-79
2023/02/03 08:34:54;;;;;;;19.77;5.70;;;9.80;99.90;;;;;;4927348;29;20202;-79
2023/02/03 08:37:24;;;;;;;25.03;4.03;;;9.80;99.90;;;;;;4910421;29;20301;-82
2023/02/03 08:39:51;;;;;;;19.60;5.27;;;9.80;99.90;;;;;;4908960;29;20225;-80
2023/02/03 08:42:19;;;;;;;16.63;3.67;;;9.90;99.90;;;;;;4908885;29;20237;-78
2023/02/03 08:44:48;;;;;;;18.83;4.20;;;9.90;99.90;;;;;;4920709;29;20230;-80
2023/02/03 08:47:15;;;;;;;23.33;5.40;;;9.90;99.90;;;;;;4926360;29;20206;-82
2023/02/03 08:49:42;;;;;;;19.20;4.93;;;9.90;99.90;;;;;;4926172;29;20210;-83
2023/02/03 08:52:12;;;;;;;15.53;4.13;;;9.80;99.90;;;;;;4920262;29;20206;-78
2023/02/03 08:54:40;;;;;;;17.53;3.90;;;9.80;99.90;;;;;;4909418;29;20203;-81
2023/02/03 08:57:07;;;;;;;16.87;4.10;;;9.90;99.90;;;;;;4919455;29;20210;-82
2023/02/03 08:59:35;;;;;;;21.33;3.77;;;9.80;99.90;;;;;;4927670;29;20531;-82
2023/02/03 09:02:02;;;;;;;16.10;4.77;;;9.90;99.90;;;;;;4925931;29;20221;-79
2023/02/03 09:04:29;;;;;;;25.37;4.30;;;9.90;99.90;;;;;;4926764;29;20232;-82
2023/02/03 09:06:56;;;;;;;22.10;4.43;;;9.90;99.90;;;;;;4929233;29;20347;-82
2023/02/03 09:09:25;;;;;;;16.83;3.87;;;9.90;99.90;;;;;;4927233;29;20256;-82
2023/02/03 09:11:54;;;;;;;19.97;4.40;;;9.90;99.90;;;;;;4929041;29;20206;-81
2023/02/03 09:14:21;;;;;;;18.70;4.23;;;9.90;99.90;;;;;;4928232;29;20233;-81
2023/02/03 09:16:48;;;;;;;28.23;4.43;;;9.90;99.90;;;;;;4926852;29;20854;-81
2023/02/03 09:19:14;;;;;;;17.80;4.03;;;9.90;99.90;;;;;;4923618;29;20217;-87
2023/02/03 09:21:41;;;;;;;21.13;4.40;;;10.00;99.90;;;;;;4928509;29;20328;-83
2023/02/03 09:24:08;;;;;;;18.83;4.73;;;10.00;99.90;;;;;;4927761;29;20312;-84
2023/02/03 09:26:36;;;;;;;17.73;3.73;;;10.00;99.90;;;;;;4928044;29;20228;-83
2023/02/03 09:29:03;;;;;;;21.53;4.07;;;10.00;99.90;;;;;;4925859;29;20209;-83
2023/02/03 09:31:30;;;;;;;20.37;4.40;;;10.00;99.90;;;;;;4929046;29;20306;-81
2023/02/03 09:33:59;;;;;;;15.57;3.87;;;10.00;99.90;;;;;;4929539;29;20589;-80
2023/02/03 09:36:26;;;;;;;22.57;4.10;;;10.00;99.90;;;;;;4925867;29;20321;-82
2023/02/03 09:38:53;;;;;;;26.73;5.10;;;9.90;99.90;;;;;;4929037;29;20236;-81
2023/02/03 09:41:36;;;;;;;25.30;5.90;;;9.90;99.90;;;;;;4926063;29;20214;-82
2023/02/03 09:44:10;;;;;;;22.93;4.30;;;10.00;99.90;;;;;;4911630;29;20282;-82
2023/02/03 09:46:43;;;;;;;17.93;3.90;;;9.90;99.90;;;;;;4916254;29;20553;-83
2023/02/03 09:49:15;;;;;;;21.00;4.43;;;10.00;99.90;;;;;;4928790;29;20264;-80
2023/02/03 09:51:48;;;;;;;20.47;4.20;;;10.00;99.90;;;;;;4929665;29;20198;-85
2023/02/03 09:54:20;;;;;;;20.97;4.33;;;10.00;99.90;;;;;;4918348;29;20207;-84
2023/02/03 09:56:51;;;;;;;21.73;4.17;;;10.00;99.90;;;;;;4915502;29;20461;-83
2023/02/03 09:59:19;;;;;;;24.37;5.20;;;10.00;99.90;;;;;;4925940;29;20536;-85
2023/02/03 10:01:52;;;;;;;21.23;4.23;;;10.00;99.90;;;;;;4926777;29;20210;-86
2023/02/03 10:04:28;;;;;;;18.87;4.63;;;10.10;99.90;;;;;;4918793;29;20207;-83
2023/02/03 10:07:04;;;;;;;21.47;4.50;;;10.10;99.90;;;;;;4920652;29;20391;-81
2023/02/03 10:09:49;;;;;;;20.07;4.60;;;10.10;99.90;;;;;;4928528;29;20349;-83
2023/02/03 10:12:41;;;;;;;17.57;5.57;;;10.10;99.90;;;;;;4929095;29;20214;-84
2023/02/03 10:15:29;;;;;;;17.47;3.80;;;10.10;99.90;;;;;;4927288;29;20202;-83
2023/02/03 10:18:01;;;;;;;19.60;4.13;;;10.20;99.90;;;;;;4927738;29;20214;-82
2023/02/03 10:20:35;;;;;;;19.63;5.23;;;10.20;99.90;;;;;;4928566;29;20210;-82
2023/02/03 10:23:07;;;;;;;23.67;5.13;;;10.30;99.90;;;;;;4915267;29;20309;-82
2023/02/03 10:25:39;;;;;;;18.20;4.67;;;10.30;99.90;;;;;;4926082;29;20206;-82
2023/02/03 10:28:16;;;;;;;18.33;4.37;;;10.30;99.90;;;;;;4927885;29;21162;-83
2023/02/03 10:30:48;;;;;;;18.37;4.57;;;10.40;99.90;;;;;;4932568;29;20198;-84
2023/02/03 10:33:17;;;;;;;14.70;4.17;;;10.40;99.90;;;;;;4932560;29;20820;-81
2023/02/03 10:35:50;;;;;;;18.10;3.80;;;10.40;99.90;;;;;;4929437;29;20202;-80
2023/02/03 10:38:32;;;;;;;28.90;5.20;;;10.40;99.90;;;;;;4929234;29;20237;-77
2023/02/03 10:40:59;;;;;;;19.43;4.43;;;10.40;99.90;;;;;;4930300;29;20202;-80
2023/02/03 10:43:47;;;;;;;12.90;3.70;;;10.40;99.90;;;;;;4930385;29;20305;-79
2023/02/03 10:46:17;;;;;;;19.03;4.70;;;10.40;99.90;;;;;;4928981;29;20307;-78
2023/02/03 10:48:44;;;;;;;16.33;4.13;;;10.40;99.90;;;;;;4929624;29;20210;-81
2023/02/03 10:51:21;;;;;;;14.80;4.00;;;10.40;99.90;;;;;;4930275;29;20220;-80
2023/02/03 10:53:51;;;;;;;17.03;4.93;;;10.40;99.90;;;;;;4912937;29;20202;-83
2023/02/03 10:56:21;;;;;;;17.73;4.27;;;10.40;99.90;;;;;;4926537;29;20206;-84
2023/02/03 10:58:50;;;;;;;18.73;4.70;;;10.40;99.90;;;;;;4930998;29;20597;-78
2023/02/03 11:01:21;;;;;;;19.63;4.23;;;10.40;99.90;;;;;;4912388;29;20209;-82
2023/02/03 11:03:57;;;;;;;21.10;4.60;;;10.40;99.90;;;;;;4929735;29;20301;-78
2023/02/03 11:06:24;;;;;;;22.13;5.17;;;10.40;99.90;;;;;;4932168;29;20329;-82
2023/02/03 11:08:52;;;;;;;19.13;3.80;;;10.40;99.90;;;;;;4913168;29;20206;-83
2023/02/03 11:11:24;;;;;;;22.50;4.90;;;10.30;99.90;;;;;;4911669;29;20249;-81
2023/02/03 11:13:56;;;;;;;21.20;4.87;;;10.30;99.90;;;;;;4921157;29;20210;-83
2023/02/03 11:16:24;;;;;;;30.03;5.80;;;10.30;99.90;;;;;;4929755;29;20208;-81
2023/02/03 11:18:56;;;;;;;26.60;6.13;;;10.30;99.90;;;;;;4913053;29;20207;-82
2023/02/03 11:21:25;;;;;;;26.63;6.33;;;10.30;99.90;;;;;;4927958;29;20210;-82
2023/02/03 11:24:00;;;;;;;25.63;7.37;;;10.30;99.90;;;;;;4930573;29;20233;-81
2023/02/03 11:26:32;;;;;;;24.53;4.73;;;10.20;99.90;;;;;;4931260;29;20223;-83
2023/02/03 11:29:01;;;;;;;24.50;4.77;;;10.20;99.90;;;;;;4921191;29;20233;-82
2023/02/03 11:31:32;;;;;;;22.00;4.80;;;10.20;99.90;;;;;;4930212;29;20212;-83
2023/02/03 11:34:02;;;;;;;18.37;4.53;;;10.20;99.90;;;;;;4910993;29;20214;-81
2023/02/03 11:36:31;;;;;;;17.40;3.93;;;10.30;99.90;;;;;;4911145;29;20623;-87
2023/02/03 11:39:17;;;;;;;18.20;3.93;;;10.20;99.90;;;;;;4911246;29;20242;-84
2023/02/03 11:41:46;;;;;;;15.17;4.10;;;10.20;99.90;;;;;;4914335;29;20209;-84
2023/02/03 11:44:18;;;;;;;21.13;5.33;;;10.20;99.90;;;;;;4912238;29;20321;-83
2023/02/03 11:46:48;;;;;;;19.63;4.33;;;10.20;99.90;;;;;;4912208;29;20298;-81
2023/02/03 11:49:38;;;;;;;18.97;3.67;;;10.20;99.90;;;;;;4926916;29;20412;-83
2023/02/03 11:52:17;;;;;;;19.50;4.17;;;10.20;99.90;;;;;;4929569;29;20194;-83
2023/02/03 11:54:52;;;;;;;14.03;3.93;;;10.30;99.90;;;;;;4912436;29;20218;-81
2023/02/03 11:57:33;;;;;;;20.33;4.63;;;10.30;99.90;;;;;;4916018;29;20198;-84
2023/02/03 12:00:14;;;;;;;19.00;3.60;;;10.30;99.90;;;;;;4929665;29;20205;-82
2023/02/03 12:02:59;;;;;;;18.20;3.20;;;10.40;99.90;;;;;;4911237;29;20209;-83
2023/02/03 12:05:56;;;;;;;16.60;4.23;;;10.40;99.90;;;;;;4911352;29;20313;-82
2023/02/03 12:08:37;;;;;;;17.13;4.03;;;10.40;99.90;;;;;;4915859;29;20205;-82
2023/02/03 12:11:15;;;;;;;13.60;3.40;;;10.50;99.90;;;;;;4929474;29;20276;-82
2023/02/03 12:13:59;;;;;;;22.80;4.00;;;10.50;99.90;;;;;;4928352;29;20528;-82
2023/02/03 12:16:56;;;;;;;15.87;5.03;;;10.50;99.90;;;;;;4929802;29;20529;-81
2023/02/03 12:19:37;;;;;;;17.13;3.93;;;10.50;99.90;;;;;;4931862;29;20228;-81
2023/02/03 12:22:14;;;;;;;13.03;3.70;;;10.50;99.90;;;;;;4931953;29;20214;-83
2023/02/03 12:24:52;;;;;;;18.67;3.47;;;10.60;99.90;;;;;;4928936;29;20595;-79
2023/02/03 12:27:32;;;;;;;23.87;4.50;;;10.50;99.90;;;;;;4926682;29;20644;-82
2023/02/03 12:30:02;;;;;;;19.73;4.53;;;10.50;99.90;;;;;;4928922;29;20313;-83
2023/02/03 12:32:36;;;;;;;19.37;4.17;;;10.50;99.90;;;;;;4926878;29;20205;-80
2023/02/03 12:35:15;;;;;;;16.80;4.90;;;10.60;99.90;;;;;;4926725;29;20216;-81
2023/02/03 12:37:48;;;;;;;21.67;4.33;;;10.60;99.90;;;;;;4908070;29;20221;-81
2023/02/03 12:40:20;;;;;;;16.50;4.07;;;10.60;99.90;;;;;;4913497;29;20212;-78
2023/02/03 12:42:51;;;;;;;25.33;4.07;;;10.60;99.90;;;;;;4927939;29;20402;-77
2023/02/03 12:45:22;;;;;;;15.57;4.10;;;10.60;99.90;;;;;;4925272;29;20213;-76
2023/02/03 12:47:54;;;;;;;22.53;4.57;;;10.60;99.90;;;;;;4907346;29;20525;-77
2023/02/03 12:50:30;;;;;;;25.47;6.63;;;10.60;99.90;;;;;;4908709;29;20209;-78
2023/02/03 12:53:04;;;;;;;20.93;4.00;;;10.50;99.90;;;;;;4907621;29;20201;-78
2023/02/03 12:55:35;;;;;;;20.87;4.73;;;10.50;99.90;;;;;;4916031;29;20782;-78
2023/02/03 12:58:06;;;;;;;19.50;4.27;;;10.50;99.90;;;;;;4926469;29;20194;-77
2023/02/03 13:00:43;;;;;;;21.27;4.57;;;10.50;99.90;;;;;;4926611;29;20216;-79
2023/02/03 13:03:17;;;;;;;22.83;4.20;;;10.50;99.90;;;;;;4926089;29;20208;-81